sensor_id;sensor_type;location;lat;lon;timestamp;temperature;humidity
40053;DHT22;25758;48.200;16.338;2023-02-17T00:00:30;7.40;99.90
40053;DHT22;25758;48.200;16.338;2023-02-17T00:02:57;7.40;99.90
40053;DHT22;25758;48.200;16.338;2023-02-17T00:05:24;7.30;99.90
40053;DHT22;25758;48.200;16.338;2023-02-17T00:07:49;7.30;99.90
40053;DHT22;25758;48.200;16.338;2023-02-17T00:10:16;7.30;99.90
40053;DHT22;25758;48.200;16.338;2023-02-17T00:12:41;7.30;99.90
40053;DHT22;25758;48.200;16.338;2023-02-17T00:15:07;7.30;99.90
40053;DHT22;25758;48.200;16.338;2023-02-17T00:17:33;7.30;99.90
40053;DHT22;25758;48.200;16.338;2023-02-17T00:19:59;7.30;99.90
40053;DHT22;25758;48.200;16.338;2023-02-17T00:22:25;7.20;99.90
40053;DHT22;25758;48.200;16.338;2023-02-17T00:24:50;7.20;99.90
40053;DHT22;25758;48.200;16.338;2023-02-17T00:27:16;7.20;99.90
40053;DHT22;25758;48.200;16.338;2023-02-17T00:29:42;7.20;99.90
40053;DHT22;25758;48.200;16.338;2023-02-17T00:32:08;7.20;99.90
40053;DHT22;25758;48.200;16.338;2023-02-17T00:34:35;7.20;99.90
40053;DHT22;25758;48.200;16.338;2023-02-17T00:37:01;7.20;99.90
40053;DHT22;25758;48.200;16.338;2023-02-17T00:39:27;7.20;99.90
40053;DHT22;25758;48.200;16.338;2023-02-17T00:41:53;7.20;99.90
40053;DHT22;25758;48.200;16.338;2023-02-17T00:44:23;7.20;99.90
40053;DHT22;25758;48.200;16.338;2023-02-17T00:46:49;4.10;99.90
40053;DHT22;25758;48.200;16.338;2023-02-17T00:49:20;7.20;99.90
40053;DHT22;25758;48.200;16.338;2023-02-17T00:51:46;7.20;99.90
40053;DHT22;25758;48.200;16.338;2023-02-17T00:54:13;7.20;99.90
40053;DHT22;25758;48.200;16.338;2023-02-17T00:56:39;7.20;99.90
40053;DHT22;25758;48.200;16.338;2023-02-17T00:59:05;7.20;99.90
40053;DHT22;25758;48.200;16.338;2023-02-17T01:01:36;7.20;99.90
40053;DHT22;25758;48.200;16.338;2023-02-17T01:04:03;7.20;99.90
40053;DHT22;25758;48.200;16.338;2023-02-17T01:06:34;7.20;99.90
40053;DHT22;25758;48.200;16.338;2023-02-17T01:09:00;7.20;99.90
40053;DHT22;25758;48.200;16.338;2023-02-17T01:11:28;7.20;99.90
40053;DHT22;25758;48.200;16.338;2023-02-17T01:13:55;7.20;99.90
40053;DHT22;25758;48.200;16.338;2023-02-17T01:16:24;7.20;99.90
40053;DHT22;25758;48.200;16.338;2023-02-17T01:18:51;7.20;99.90
40053;DHT22;25758;48.200;16.338;2023-02-17T01:21:25;7.20;99.90
40053;DHT22;25758;48.200;16.338;2023-02-17T01:23:55;7.20;99.90
40053;DHT22;25758;48.200;16.338;2023-02-17T01:26:23;7.10;99.90
40053;DHT22;25758;48.200;16.338;2023-02-17T01:28:50;7.20;99.90
40053;DHT22;25758;48.200;16.338;2023-02-17T01:31:17;7.20;99.90
40053;DHT22;25758;48.200;16.338;2023-02-17T01:33:43;7.20;99.90
40053;DHT22;25758;48.200;16.338;2023-02-17T01:36:11;7.20;99.90
40053;DHT22;25758;48.200;16.338;2023-02-17T01:38:37;7.20;99.90
40053;DHT22;25758;48.200;16.338;2023-02-17T01:41:03;7.10;99.90
40053;DHT22;25758;48.200;16.338;2023-02-17T01:43:29;7.20;99.90
40053;DHT22;25758;48.200;16.338;2023-02-17T01:45:59;7.20;99.90
40053;DHT22;25758;48.200;16.338;2023-02-17T01:48:51;7.20;99.90
40053;DHT22;25758;48.200;16.338;2023-02-17T01:51:25;7.20;99.90
40053;DHT22;25758;48.200;16.338;2023-02-17T01:56:19;7.20;99.90
40053;DHT22;25758;48.200;16.338;2023-02-17T01:58:50;7.20;99.90
40053;DHT22;25758;48.200;16.338;2023-02-17T02:01:18;7.10;99.90
40053;DHT22;25758;48.200;16.338;2023-02-17T02:03:44;7.10;99.90
40053;DHT22;25758;48.200;16.338;2023-02-17T02:06:14;7.10;99.90
40053;DHT22;25758;48.200;16.338;2023-02-17T02:08:55;7.10;99.90
40053;DHT22;25758;48.200;16.338;2023-02-17T02:11:23;7.10;99.90
40053;DHT22;25758;48.200;16.338;2023-02-17T02:13:50;7.10;99.90
40053;DHT22;25758;48.200;16.338;2023-02-17T02:27:44;7.10;99.90
40053;DHT22;25758;48.200;16.338;2023-02-17T02:40:11;6.90;99.90
40053;DHT22;25758;48.200;16.338;2023-02-17T02:42:39;6.80;99.90
40053;DHT22;25758;48.200;16.338;2023-02-17T02:45:08;6.80;99.90
40053;DHT22;25758;48.200;16.338;2023-02-17T02:47:52;6.80;99.90
40053;DHT22;25758;48.200;16.338;2023-02-17T02:58:12;6.70;99.90
40053;DHT22;25758;48.200;16.338;2023-02-17T03:00:54;6.70;99.90
40053;DHT22;25758;48.200;16.338;2023-02-17T03:03:40;6.70;99.90
40053;DHT22;25758;48.200;16.338;2023-02-17T03:06:58;6.70;99.90
40053;DHT22;25758;48.200;16.338;2023-02-17T03:09:09;6.70;99.90
40053;DHT22;25758;48.200;16.338;2023-02-17T03:11:35;6.60;99.90
40053;DHT22;25758;48.200;16.338;2023-02-17T03:14:10;6.70;99.90
40053;DHT22;25758;48.200;16.338;2023-02-17T03:16:37;6.60;99.90
40053;DHT22;25758;48.200;16.338;2023-02-17T03:19:04;6.60;99.90
40053;DHT22;25758;48.200;16.338;2023-02-17T03:22:50;6.70;99.90
40053;DHT22;25758;48.200;16.338;2023-02-17T03:24:45;6.60;99.90
40053;DHT22;25758;48.200;16.338;2023-02-17T03:27:10;6.60;99.90
40053;DHT22;25758;48.200;16.338;2023-02-17T03:29:36;6.60;99.90
40053;DHT22;25758;48.200;16.338;2023-02-17T03:32:03;6.60;99.90
40053;DHT22;25758;48.200;16.338;2023-02-17T03:34:28;6.60;99.90
40053;DHT22;25758;48.200;16.338;2023-02-17T03:36:54;6.60;99.90
40053;DHT22;25758;48.200;16.338;2023-02-17T03:39:20;6.60;99.90
40053;DHT22;25758;48.200;16.338;2023-02-17T03:41:45;6.60;99.90
40053;DHT22;25758;48.200;16.338;2023-02-17T03:44:14;6.60;99.90
40053;DHT22;25758;48.200;16.338;2023-02-17T03:46:40;6.60;99.90
40053;DHT22;25758;48.200;16.338;2023-02-17T03:49:06;6.60;99.90
40053;DHT22;25758;48.200;16.338;2023-02-17T03:51:32;6.60;99.90
40053;DHT22;25758;48.200;16.338;2023-02-17T03:53:57;6.60;99.90
40053;DHT22;25758;48.200;16.338;2023-02-17T03:56:23;6.70;99.90
40053;DHT22;25758;48.200;16.338;2023-02-17T03:58:48;6.70;99.90
40053;DHT22;25758;48.200;16.338;2023-02-17T04:01:14;6.70;99.90
40053;DHT22;25758;48.200;16.338;2023-02-17T04:03:40;7.00;99.90
40053;DHT22;25758;48.200;16.338;2023-02-17T04:06:07;7.20;99.90
40053;DHT22;25758;48.200;16.338;2023-02-17T04:08:33;7.30;99.90
40053;DHT22;25758;48.200;16.338;2023-02-17T04:11:00;7.40;99.90
40053;DHT22;25758;48.200;16.338;2023-02-17T04:13:27;7.50;99.90
40053;DHT22;25758;48.200;16.338;2023-02-17T04:15:53;7.70;99.90
40053;DHT22;25758;48.200;16.338;2023-02-17T04:18:19;7.70;99.90
40053;DHT22;25758;48.200;16.338;2023-02-17T04:20:48;7.80;99.90
40053;DHT22;25758;48.200;16.338;2023-02-17T04:23:14;7.80;99.90
40053;DHT22;25758;48.200;16.338;2023-02-17T04:25:40;7.90;99.90
40053;DHT22;25758;48.200;16.338;2023-02-17T04:28:06;8.00;99.90
40053;DHT22;25758;48.200;16.338;2023-02-17T04:30:32;8.10;99.90
40053;DHT22;25758;48.200;16.338;2023-02-17T04:32:58;8.10;99.90
40053;DHT22;25758;48.200;16.338;2023-02-17T04:35:24;8.20;99.90
40053;DHT22;25758;48.200;16.338;2023-02-17T04:37:50;8.20;99.90
40053;DHT22;25758;48.200;16.338;2023-02-17T04:40:17;8.20;99.90
40053;DHT22;25758;48.200;16.338;2023-02-17T04:42:43;8.30;99.90
40053;DHT22;25758;48.200;16.338;2023-02-17T04:45:09;8.30;99.90
40053;DHT22;25758;48.200;16.338;2023-02-17T04:47:35;8.30;99.90
40053;DHT22;25758;48.200;16.338;2023-02-17T04:50:01;8.40;99.90
40053;DHT22;25758;48.200;16.338;2023-02-17T04:52:27;8.40;99.90
40053;DHT22;25758;48.200;16.338;2023-02-17T04:54:52;8.40;99.90
40053;DHT22;25758;48.200;16.338;2023-02-17T04:57:18;8.50;99.90
40053;DHT22;25758;48.200;16.338;2023-02-17T04:59:44;8.50;99.90
40053;DHT22;25758;48.200;16.338;2023-02-17T05:02:10;8.50;99.90
40053;DHT22;25758;48.200;16.338;2023-02-17T05:04:35;8.50;99.90
40053;DHT22;25758;48.200;16.338;2023-02-17T05:07:01;8.60;99.90
40053;DHT22;25758;48.200;16.338;2023-02-17T05:09:27;8.60;99.90
40053;DHT22;25758;48.200;16.338;2023-02-17T05:11:53;8.70;99.90
40053;DHT22;25758;48.200;16.338;2023-02-17T05:14:19;8.70;99.90
40053;DHT22;25758;48.200;16.338;2023-02-17T05:16:44;8.80;99.90
40053;DHT22;25758;48.200;16.338;2023-02-17T05:19:10;6.20;99.40
40053;DHT22;25758;48.200;16.338;2023-02-17T05:21:36;8.70;99.90
40053;DHT22;25758;48.200;16.338;2023-02-17T05:24:01;8.80;99.80
40053;DHT22;25758;48.200;16.338;2023-02-17T05:26:27;8.80;99.50
40053;DHT22;25758;48.200;16.338;2023-02-17T05:28:53;8.80;99.30
40053;DHT22;25758;48.200;16.338;2023-02-17T05:31:18;8.90;99.20
40053;DHT22;25758;48.200;16.338;2023-02-17T05:33:44;8.80;99.20
40053;DHT22;25758;48.200;16.338;2023-02-17T05:36:10;8.90;99.00
40053;DHT22;25758;48.200;16.338;2023-02-17T05:38:37;8.90;99.10
40053;DHT22;25758;48.200;16.338;2023-02-17T05:41:03;8.90;99.00
40053;DHT22;25758;48.200;16.338;2023-02-17T05:43:29;8.90;98.80
40053;DHT22;25758;48.200;16.338;2023-02-17T05:45:55;9.00;98.70
40053;DHT22;25758;48.200;16.338;2023-02-17T05:48:21;9.00;98.70
40053;DHT22;25758;48.200;16.338;2023-02-17T05:50:46;9.10;98.60
40053;DHT22;25758;48.200;16.338;2023-02-17T05:53:12;9.10;98.60
40053;DHT22;25758;48.200;16.338;2023-02-17T05:55:38;9.10;98.60
40053;DHT22;25758;48.200;16.338;2023-02-17T05:58:04;9.20;98.60
40053;DHT22;25758;48.200;16.338;2023-02-17T06:00:30;9.20;98.60
40053;DHT22;25758;48.200;16.338;2023-02-17T06:02:55;9.20;98.70
40053;DHT22;25758;48.200;16.338;2023-02-17T06:05:21;9.20;98.60
40053;DHT22;25758;48.200;16.338;2023-02-17T06:07:47;9.30;98.50
40053;DHT22;25758;48.200;16.338;2023-02-17T06:10:12;9.30;98.40
40053;DHT22;25758;48.200;16.338;2023-02-17T06:12:38;9.30;98.40
40053;DHT22;25758;48.200;16.338;2023-02-17T06:15:04;9.40;98.30
40053;DHT22;25758;48.200;16.338;2023-02-17T06:17:30;9.40;98.60
40053;DHT22;25758;48.200;16.338;2023-02-17T06:19:56;9.40;98.50
40053;DHT22;25758;48.200;16.338;2023-02-17T06:22:21;9.50;98.40
40053;DHT22;25758;48.200;16.338;2023-02-17T06:24:47;9.50;98.40
40053;DHT22;25758;48.200;16.338;2023-02-17T06:27:13;9.50;98.50
40053;DHT22;25758;48.200;16.338;2023-02-17T06:29:38;9.50;98.50
40053;DHT22;25758;48.200;16.338;2023-02-17T06:32:04;9.50;98.40
40053;DHT22;25758;48.200;16.338;2023-02-17T06:34:30;9.60;98.30
40053;DHT22;25758;48.200;16.338;2023-02-17T06:36:55;9.60;98.30
40053;DHT22;25758;48.200;16.338;2023-02-17T06:39:21;9.60;98.30
40053;DHT22;25758;48.200;16.338;2023-02-17T06:41:47;9.60;98.40
40053;DHT22;25758;48.200;16.338;2023-02-17T06:44:13;9.60;98.50
40053;DHT22;25758;48.200;16.338;2023-02-17T06:46:38;9.60;98.50
40053;DHT22;25758;48.200;16.338;2023-02-17T06:49:04;9.60;98.60
40053;DHT22;25758;48.200;16.338;2023-02-17T06:51:30;9.60;98.70
40053;DHT22;25758;48.200;16.338;2023-02-17T06:53:55;9.60;98.60
40053;DHT22;25758;48.200;16.338;2023-02-17T06:56:21;9.60;98.50
40053;DHT22;25758;48.200;16.338;2023-02-17T06:58:47;9.60;98.40
40053;DHT22;25758;48.200;16.338;2023-02-17T07:01:18;9.60;98.40
40053;DHT22;25758;48.200;16.338;2023-02-17T07:03:44;9.70;98.30
40053;DHT22;25758;48.200;16.338;2023-02-17T07:06:10;9.70;98.50
40053;DHT22;25758;48.200;16.338;2023-02-17T07:08:36;9.70;98.20
40053;DHT22;25758;48.200;16.338;2023-02-17T07:11:09;9.80;98.00
40053;DHT22;25758;48.200;16.338;2023-02-17T07:13:35;9.80;98.10
40053;DHT22;25758;48.200;16.338;2023-02-17T07:16:01;9.70;98.10
40053;DHT22;25758;48.200;16.338;2023-02-17T07:18:27;9.90;97.70
40053;DHT22;25758;48.200;16.338;2023-02-17T07:20:52;9.90;97.80
40053;DHT22;25758;48.200;16.338;2023-02-17T07:23:18;9.90;97.80
40053;DHT22;25758;48.200;16.338;2023-02-17T07:25:44;9.90;97.80
40053;DHT22;25758;48.200;16.338;2023-02-17T07:28:10;9.90;97.70
40053;DHT22;25758;48.200;16.338;2023-02-17T07:30:42;9.90;97.90
40053;DHT22;25758;48.200;16.338;2023-02-17T07:33:08;9.90;97.50
40053;DHT22;25758;48.200;16.338;2023-02-17T07:35:40;10.00;97.50
40053;DHT22;25758;48.200;16.338;2023-02-17T07:38:06;10.00;97.70
40053;DHT22;25758;48.200;16.338;2023-02-17T07:40:32;10.00;97.60
40053;DHT22;25758;48.200;16.338;2023-02-17T07:42:58;10.00;97.70
40053;DHT22;25758;48.200;16.338;2023-02-17T07:45:24;10.00;97.80
40053;DHT22;25758;48.200;16.338;2023-02-17T07:47:49;10.00;97.90
40053;DHT22;25758;48.200;16.338;2023-02-17T07:50:15;10.00;98.00
40053;DHT22;25758;48.200;16.338;2023-02-17T07:52:41;9.90;98.10
40053;DHT22;25758;48.200;16.338;2023-02-17T07:55:06;9.90;98.10
40053;DHT22;25758;48.200;16.338;2023-02-17T07:57:32;9.90;98.10
40053;DHT22;25758;48.200;16.338;2023-02-17T07:59:58;9.90;98.30
40053;DHT22;25758;48.200;16.338;2023-02-17T08:02:23;9.90;98.30
40053;DHT22;25758;48.200;16.338;2023-02-17T08:04:50;9.90;98.50
40053;DHT22;25758;48.200;16.338;2023-02-17T08:07:17;10.00;98.40
40053;DHT22;25758;48.200;16.338;2023-02-17T08:09:43;10.00;98.50
40053;DHT22;25758;48.200;16.338;2023-02-17T08:12:27;10.00;98.50
40053;DHT22;25758;48.200;16.338;2023-02-17T08:15:12;9.90;98.50
40053;DHT22;25758;48.200;16.338;2023-02-17T08:17:38;9.90;98.50
40053;DHT22;25758;48.200;16.338;2023-02-17T08:20:05;9.90;98.50
40053;DHT22;25758;48.200;16.338;2023-02-17T08:22:31;9.80;98.50
40053;DHT22;25758;48.200;16.338;2023-02-17T08:24:57;9.90;98.80
40053;DHT22;25758;48.200;16.338;2023-02-17T08:27:22;10.00;99.50
40053;DHT22;25758;48.200;16.338;2023-02-17T08:29:48;10.10;99.90
40053;DHT22;25758;48.200;16.338;2023-02-17T08:32:15;10.30;99.90
40053;DHT22;25758;48.200;16.338;2023-02-17T08:34:41;10.50;99.90
40053;DHT22;25758;48.200;16.338;2023-02-17T08:37:08;10.70;99.90
40053;DHT22;25758;48.200;16.338;2023-02-17T08:39:34;10.70;99.90
40053;DHT22;25758;48.200;16.338;2023-02-17T08:42:00;10.90;99.90
40053;DHT22;25758;48.200;16.338;2023-02-17T08:44:26;10.90;99.90
40053;DHT22;25758;48.200;16.338;2023-02-17T08:46:52;11.00;99.90
40053;DHT22;25758;48.200;16.338;2023-02-17T08:49:22;11.00;99.90
40053;DHT22;25758;48.200;16.338;2023-02-17T08:51:49;11.10;99.90
40053;DHT22;25758;48.200;16.338;2023-02-17T08:54:15;11.10;99.90
40053;DHT22;25758;48.200;16.338;2023-02-17T08:56:41;11.10;99.90
40053;DHT22;25758;48.200;16.338;2023-02-17T08:59:09;11.00;99.90
40053;DHT22;25758;48.200;16.338;2023-02-17T09:01:36;11.10;99.90
40053;DHT22;25758;48.200;16.338;2023-02-17T09:04:03;11.00;99.90
40053;DHT22;25758;48.200;16.338;2023-02-17T09:06:56;11.10;99.90
40053;DHT22;25758;48.200;16.338;2023-02-17T09:09:24;11.00;99.90
40053;DHT22;25758;48.200;16.338;2023-02-17T09:11:56;11.00;99.90
40053;DHT22;25758;48.200;16.338;2023-02-17T09:14:22;11.10;99.90
40053;DHT22;25758;48.200;16.338;2023-02-17T09:16:49;11.00;99.90
40053;DHT22;25758;48.200;16.338;2023-02-17T09:19:16;11.10;99.90
40053;DHT22;25758;48.200;16.338;2023-02-17T09:21:41;11.10;99.90
40053;DHT22;25758;48.200;16.338;2023-02-17T09:24:07;11.10;99.90
40053;DHT22;25758;48.200;16.338;2023-02-17T09:26:33;11.10;99.90
40053;DHT22;25758;48.200;16.338;2023-02-17T09:29:02;11.20;99.90
40053;DHT22;25758;48.200;16.338;2023-02-17T09:31:29;11.10;99.90
40053;DHT22;25758;48.200;16.338;2023-02-17T09:33:54;11.10;99.90
40053;DHT22;25758;48.200;16.338;2023-02-17T09:36:23;11.10;99.90
40053;DHT22;25758;48.200;16.338;2023-02-17T09:38:50;11.10;99.90
40053;DHT22;25758;48.200;16.338;2023-02-17T09:43:48;11.30;99.90
40053;DHT22;25758;48.200;16.338;2023-02-17T09:46:28;11.20;99.90
40053;DHT22;25758;48.200;16.338;2023-02-17T09:48:58;11.20;99.90
40053;DHT22;25758;48.200;16.338;2023-02-17T09:51:32;11.20;99.90
40053;DHT22;25758;48.200;16.338;2023-02-17T09:54:29;11.10;99.90
40053;DHT22;25758;48.200;16.338;2023-02-17T09:56:57;11.10;99.90
40053;DHT22;25758;48.200;16.338;2023-02-17T10:02:13;11.00;99.90
40053;DHT22;25758;48.200;16.338;2023-02-17T10:04:43;11.00;99.90
40053;DHT22;25758;48.200;16.338;2023-02-17T10:07:17;10.90;99.90
40053;DHT22;25758;48.200;16.338;2023-02-17T10:09:51;10.90;99.90
40053;DHT22;25758;48.200;16.338;2023-02-17T10:12:55;11.00;99.90
40053;DHT22;25758;48.200;16.338;2023-02-17T10:15:33;11.00;99.90
40053;DHT22;25758;48.200;16.338;2023-02-17T10:20:59;11.00;99.90
40053;DHT22;25758;48.200;16.338;2023-02-17T10:23:27;11.00;99.90
40053;DHT22;25758;48.200;16.338;2023-02-17T10:26:21;11.00;99.90
40053;DHT22;25758;48.200;16.338;2023-02-17T10:31:37;11.00;99.90
40053;DHT22;25758;48.200;16.338;2023-02-17T10:36:56;11.00;99.90
40053;DHT22;25758;48.200;16.338;2023-02-17T10:41:50;11.00;99.90
40053;DHT22;25758;48.200;16.338;2023-02-17T10:44:21;11.00;99.90
40053;DHT22;25758;48.200;16.338;2023-02-17T10:46:48;11.00;99.90
40053;DHT22;25758;48.200;16.338;2023-02-17T10:51:52;11.00;99.90
40053;DHT22;25758;48.200;16.338;2023-02-17T10:54:29;11.00;99.90
40053;DHT22;25758;48.200;16.338;2023-02-17T10:57:00;11.10;99.90
40053;DHT22;25758;48.200;16.338;2023-02-17T10:59:34;11.20;99.90
40053;DHT22;25758;48.200;16.338;2023-02-17T11:02:39;11.20;99.90
40053;DHT22;25758;48.200;16.338;2023-02-17T11:05:06;11.20;99.90
40053;DHT22;25758;48.200;16.338;2023-02-17T11:07:34;11.20;99.90
40053;DHT22;25758;48.200;16.338;2023-02-17T11:10:03;11.20;99.90
40053;DHT22;25758;48.200;16.338;2023-02-17T11:12:40;11.30;99.90
40053;DHT22;25758;48.200;16.338;2023-02-17T11:15:18;11.30;99.90
40053;DHT22;25758;48.200;16.338;2023-02-17T11:17:45;11.40;99.90
40053;DHT22;25758;48.200;16.338;2023-02-17T11:22:44;11.40;99.90
40053;DHT22;25758;48.200;16.338;2023-02-17T11:25:21;11.50;99.90
40053;DHT22;25758;48.200;16.338;2023-02-17T11:27:55;11.50;99.90
40053;DHT22;25758;48.200;16.338;2023-02-17T11:30:22;11.50;99.90
40053;DHT22;25758;48.200;16.338;2023-02-17T11:32:48;11.60;99.90
40053;DHT22;25758;48.200;16.338;2023-02-17T11:38:03;11.60;99.90
40053;DHT22;25758;48.200;16.338;2023-02-17T11:40:34;11.60;99.90
40053;DHT22;25758;48.200;16.338;2023-02-17T11:43:01;11.70;99.90
40053;DHT22;25758;48.200;16.338;2023-02-17T11:51:02;11.70;99.90
40053;DHT22;25758;48.200;16.338;2023-02-17T11:56:40;11.80;99.90
40053;DHT22;25758;48.200;16.338;2023-02-17T12:04:44;11.80;99.90
40053;DHT22;25758;48.200;16.338;2023-02-17T12:13:11;11.80;99.90
40053;DHT22;25758;48.200;16.338;2023-02-17T12:15:46;11.90;99.90
40053;DHT22;25758;48.200;16.338;2023-02-17T12:18:43;11.80;99.90
40053;DHT22;25758;48.200;16.338;2023-02-17T12:21:43;11.80;99.90
40053;DHT22;25758;48.200;16.338;2023-02-17T12:27:19;11.90;99.90
40053;DHT22;25758;48.200;16.338;2023-02-17T12:33:15;11.90;99.90
40053;DHT22;25758;48.200;16.338;2023-02-17T12:35:54;11.90;99.90
40053;DHT22;25758;48.200;16.338;2023-02-17T12:38:34;11.90;99.90
40053;DHT22;25758;48.200;16.338;2023-02-17T12:41:03;11.90;99.90
40053;DHT22;25758;48.200;16.338;2023-02-17T12:43:43;11.90;99.90
40053;DHT22;25758;48.200;16.338;2023-02-17T12:46:23;11.90;99.90
40053;DHT22;25758;48.200;16.338;2023-02-17T12:52:05;11.90;99.90
40053;DHT22;25758;48.200;16.338;2023-02-17T12:54:31;12.00;99.90
40053;DHT22;25758;48.200;16.338;2023-02-17T12:59:37;11.90;99.90
40053;DHT22;25758;48.200;16.338;2023-02-17T13:02:10;11.90;99.90
40053;DHT22;25758;48.200;16.338;2023-02-17T13:04:38;12.00;99.90
40053;DHT22;25758;48.200;16.338;2023-02-17T13:07:12;11.90;99.90
40053;DHT22;25758;48.200;16.338;2023-02-17T13:09:42;12.00;99.90
40053;DHT22;25758;48.200;16.338;2023-02-17T13:22:40;12.10;99.90
40053;DHT22;25758;48.200;16.338;2023-02-17T13:25:25;12.10;99.90
40053;DHT22;25758;48.200;16.338;2023-02-17T13:27:51;12.10;99.90
40053;DHT22;25758;48.200;16.338;2023-02-17T13:32:43;12.10;99.90
40053;DHT22;25758;48.200;16.338;2023-02-17T13:37:50;12.10;99.90
40053;DHT22;25758;48.200;16.338;2023-02-17T13:42:54;12.10;99.90
40053;DHT22;25758;48.200;16.338;2023-02-17T13:45:44;12.10;99.90
40053;DHT22;25758;48.200;16.338;2023-02-17T13:51:02;12.20;99.90
40053;DHT22;25758;48.200;16.338;2023-02-17T13:53:34;12.20;99.90
40053;DHT22;25758;48.200;16.338;2023-02-17T13:56:09;12.20;99.90
40053;DHT22;25758;48.200;16.338;2023-02-17T13:58:40;12.20;99.90
40053;DHT22;25758;48.200;16.338;2023-02-17T14:01:14;12.20;99.90
40053;DHT22;25758;48.200;16.338;2023-02-17T14:06:12;12.20;99.90
40053;DHT22;25758;48.200;16.338;2023-02-17T14:08:40;12.20;99.90
40053;DHT22;25758;48.200;16.338;2023-02-17T14:11:12;12.30;99.90
40053;DHT22;25758;48.200;16.338;2023-02-17T14:13:41;12.30;99.90
40053;DHT22;25758;48.200;16.338;2023-02-17T14:19:05;12.30;99.90
40053;DHT22;25758;48.200;16.338;2023-02-17T14:21:33;12.30;99.90
40053;DHT22;25758;48.200;16.338;2023-02-17T14:24:00;12.30;99.90
40053;DHT22;25758;48.200;16.338;2023-02-17T14:29:08;12.30;99.90
40053;DHT22;25758;48.200;16.338;2023-02-17T14:31:49;12.40;99.90
40053;DHT22;25758;48.200;16.338;2023-02-17T14:34:30;12.30;99.90
40053;DHT22;25758;48.200;16.338;2023-02-17T14:37:23;12.40;99.90
40053;DHT22;25758;48.200;16.338;2023-02-17T14:39:49;12.40;99.90
40053;DHT22;25758;48.200;16.338;2023-02-17T14:42:15;12.50;99.90
40053;DHT22;25758;48.200;16.338;2023-02-17T14:44:43;12.60;99.90
40053;DHT22;25758;48.200;16.338;2023-02-17T14:47:08;12.50;99.90
40053;DHT22;25758;48.200;16.338;2023-02-17T14:49:34;12.60;99.90
40053;DHT22;25758;48.200;16.338;2023-02-17T14:52:05;12.60;99.90
40053;DHT22;25758;48.200;16.338;2023-02-17T14:54:37;12.60;99.90
40053;DHT22;25758;48.200;16.338;2023-02-17T14:57:05;12.70;99.90
40053;DHT22;25758;48.200;16.338;2023-02-17T14:59:31;12.70;99.90
40053;DHT22;25758;48.200;16.338;2023-02-17T15:01:57;12.70;99.90
40053;DHT22;25758;48.200;16.338;2023-02-17T15:04:23;12.70;99.90
40053;DHT22;25758;48.200;16.338;2023-02-17T15:06:50;12.70;99.90
40053;DHT22;25758;48.200;16.338;2023-02-17T15:09:27;12.70;99.90
40053;DHT22;25758;48.200;16.338;2023-02-17T15:11:52;12.80;99.90
40053;DHT22;25758;48.200;16.338;2023-02-17T15:14:19;12.80;99.90
40053;DHT22;25758;48.200;16.338;2023-02-17T15:16:46;12.80;99.90
40053;DHT22;25758;48.200;16.338;2023-02-17T15:19:13;12.90;99.90
40053;DHT22;25758;48.200;16.338;2023-02-17T15:21:47;12.90;99.90
40053;DHT22;25758;48.200;16.338;2023-02-17T15:24:24;12.90;99.90
40053;DHT22;25758;48.200;16.338;2023-02-17T15:26:50;12.90;99.90
40053;DHT22;25758;48.200;16.338;2023-02-17T15:29:21;12.90;99.90
40053;DHT22;25758;48.200;16.338;2023-02-17T15:31:48;12.90;99.90
40053;DHT22;25758;48.200;16.338;2023-02-17T15:34:20;12.90;99.90
40053;DHT22;25758;48.200;16.338;2023-02-17T15:36:46;12.90;99.90
40053;DHT22;25758;48.200;16.338;2023-02-17T15:39:15;12.90;99.90
40053;DHT22;25758;48.200;16.338;2023-02-17T15:41:42;12.90;99.90
40053;DHT22;25758;48.200;16.338;2023-02-17T15:44:16;12.90;99.90
40053;DHT22;25758;48.200;16.338;2023-02-17T15:46:43;12.90;99.90
40053;DHT22;25758;48.200;16.338;2023-02-17T15:49:11;12.90;99.90
40053;DHT22;25758;48.200;16.338;2023-02-17T15:51:37;12.90;99.90
40053;DHT22;25758;48.200;16.338;2023-02-17T15:54:04;12.90;99.90
40053;DHT22;25758;48.200;16.338;2023-02-17T15:56:41;12.90;99.90
40053;DHT22;25758;48.200;16.338;2023-02-17T15:59:14;13.00;99.90
40053;DHT22;25758;48.200;16.338;2023-02-17T16:01:41;13.00;99.90
40053;DHT22;25758;48.200;16.338;2023-02-17T16:04:12;13.00;99.90
40053;DHT22;25758;48.200;16.338;2023-02-17T16:06:39;13.00;99.90
40053;DHT22;25758;48.200;16.338;2023-02-17T16:09:05;13.00;99.90
40053;DHT22;25758;48.200;16.338;2023-02-17T16:11:31;13.00;99.90
40053;DHT22;25758;48.200;16.338;2023-02-17T16:13:57;13.00;99.90
40053;DHT22;25758;48.200;16.338;2023-02-17T16:16:26;13.00;99.90
40053;DHT22;25758;48.200;16.338;2023-02-17T16:19:00;13.10;99.90
40053;DHT22;25758;48.200;16.338;2023-02-17T16:21:26;13.10;99.90
40053;DHT22;25758;48.200;16.338;2023-02-17T16:23:52;13.10;99.90
40053;DHT22;25758;48.200;16.338;2023-02-17T16:26:34;13.10;99.90
40053;DHT22;25758;48.200;16.338;2023-02-17T16:29:04;13.00;99.90
40053;DHT22;25758;48.200;16.338;2023-02-17T16:31:35;13.00;99.90
40053;DHT22;25758;48.200;16.338;2023-02-17T16:34:01;13.00;99.90
40053;DHT22;25758;48.200;16.338;2023-02-17T16:36:29;13.00;99.90
40053;DHT22;25758;48.200;16.338;2023-02-17T16:38:57;13.10;99.90
40053;DHT22;25758;48.200;16.338;2023-02-17T16:41:23;13.10;99.90
40053;DHT22;25758;48.200;16.338;2023-02-17T16:43:49;13.10;99.90
40053;DHT22;25758;48.200;16.338;2023-02-17T16:46:30;13.10;99.90
40053;DHT22;25758;48.200;16.338;2023-02-17T16:48:58;13.10;99.90
40053;DHT22;25758;48.200;16.338;2023-02-17T16:51:25;13.10;99.90
40053;DHT22;25758;48.200;16.338;2023-02-17T16:53:51;13.10;99.90
40053;DHT22;25758;48.200;16.338;2023-02-17T16:56:35;13.10;99.90
40053;DHT22;25758;48.200;16.338;2023-02-17T16:59:03;13.10;99.90
40053;DHT22;25758;48.200;16.338;2023-02-17T17:01:29;13.10;99.90
40053;DHT22;25758;48.200;16.338;2023-02-17T17:03:56;13.10;99.90
40053;DHT22;25758;48.200;16.338;2023-02-17T17:06:27;13.10;99.90
40053;DHT22;25758;48.200;16.338;2023-02-17T17:08:54;13.00;99.90
40053;DHT22;25758;48.200;16.338;2023-02-17T17:11:23;13.00;99.90
40053;DHT22;25758;48.200;16.338;2023-02-17T17:13:49;13.10;99.90
40053;DHT22;25758;48.200;16.338;2023-02-17T17:16:24;13.00;99.90
40053;DHT22;25758;48.200;16.338;2023-02-17T17:18:51;13.00;99.90
40053;DHT22;25758;48.200;16.338;2023-02-17T17:21:21;13.10;99.90
40053;DHT22;25758;48.200;16.338;2023-02-17T17:23:47;13.10;99.90
40053;DHT22;25758;48.200;16.338;2023-02-17T17:28:44;13.10;99.90
40053;DHT22;25758;48.200;16.338;2023-02-17T17:31:12;13.10;99.90
40053;DHT22;25758;48.200;16.338;2023-02-17T17:33:38;13.20;99.90